Hanseatic — C6KA9 — position and weather

sailwx.info

Track history (hours):
 
Tides and Currents Weather Stations Pressure Air Temp Water Temp Dewpoint Dewpoint Depression Visibility Wind Speed Wind Dir Waves Ship Positions

Hanseatic

Operator: Hapag-Lloyd Container Line

Last reported at 2017-Sep-15 19:37 UTC. Time now 2017-Sep-22 06:11 UTC.
Position N 63°34' W 051°54'.

Length 123 m; draft 4.9 m.

Type: Ship. MMSI: 309577000.

Date/timePositionNaut miles runAvg speedWind from/ knotsBaromVisibWave heightAir tempDewpointWater temp
2017-Sep-15 19:37N 63°34' W 051°54'212.4
2017-Sep-15 19:28N 63°35' W 051°55'612.8
2017-Sep-15 19:00N 63°41' W 052°01'713.0
2017-Sep-15 18:30N 63°47' W 052°06'713.1
2017-Sep-15 18:00N 63°53' W 052°12'613.0
2017-Sep-15 17:30N 63°58' W 052°19'510.8
2017-Sep-15 17:00N 64°03' W 052°12'713.5
2017-Sep-15 16:30N 64°06' W 051°58'612.3
2017-Sep-15 16:00N 64°10' W 051°47'1 1.8
2017-Sep-15 15:30N 64°11' W 051°45'0 0.1
2017-Sep-15 15:00N 64°11' W 051°46'0 0.1
2017-Sep-15 14:30N 64°11' W 051°46'0 0.1
2017-Sep-15 14:00N 64°11' W 051°46'0 0.1
2017-Sep-15 13:30N 64°11' W 051°46'0 0.1
2017-Sep-15 13:00N 64°11' W 051°46'0 0.1
2017-Sep-15 12:30N 64°11' W 051°46'0 0.0
2017-Sep-15 12:00N 64°11' W 051°46'0 0.0
2017-Sep-15 11:30N 64°11' W 051°46'0 0.0
2017-Sep-15 11:00N 64°11' W 051°46'0 0.0
2017-Sep-15 10:30N 64°11' W 051°46'0 0.0
2017-Sep-15 10:00N 64°11' W 051°46'4 8.8
2017-Sep-15 09:30N 64°08' W 051°53'714.7
2017-Sep-15 09:00N 64°04' W 052°08'713.1
2017-Sep-15 08:30N 64°06' W 052°22'713.1
2017-Sep-15 08:00N 64°12' W 052°27'713.9
2017-Sep-15 07:30N 64°19' W 052°30'713.9
2017-Sep-15 07:00N 64°26' W 052°34'713.9
2017-Sep-15 06:30N 64°33' W 052°37'713.9
2017-Sep-15 06:00N 64°40' W 052°41'713.6
2017-Sep-15 05:30N 64°46' W 052°45'714.0
2017-Sep-15 05:01N 64°53' W 052°48'713.8
2017-Sep-15 04:31N 64°59' W 052°53'612.7
2017-Sep-15 04:00N 65°06' W 052°58'612.6
2017-Sep-15 03:31N 65°11' W 053°03'  
2017-Sep-09 00:20N 66°01' W 053°40'412.0
2017-Sep-09 00:00N 66°03' W 053°47'1312.4
2017-Sep-08 22:58N 66°15' W 054°01'  
Track history (hours):
 
Tides and Currents Weather Stations Pressure Air Temp Water Temp Dewpoint Dewpoint Depression Visibility Wind Speed Wind Dir Waves Ship Positions

Hanseatic

Operator: Hapag-Lloyd Container Line

Last reported at 2017-Sep-15 19:37 UTC. Time now 2017-Sep-22 06:11 UTC.
Position N 63°34' W 051°54'.

Length 123 m; draft 4.9 m.

Type: Ship. MMSI: 309577000.

Date/timePositionNaut miles runAvg speedWind from/ knotsBaromVisibWave heightAir tempDewpointWater temp
2017-Sep-15 19:37N 63°34' W 051°54'212.4
2017-Sep-15 19:28N 63°35' W 051°55'612.8
2017-Sep-15 19:00N 63°41' W 052°01'713.0
2017-Sep-15 18:30N 63°47' W 052°06'713.1
2017-Sep-15 18:00N 63°53' W 052°12'613.0
2017-Sep-15 17:30N 63°58' W 052°19'510.8
2017-Sep-15 17:00N 64°03' W 052°12'713.5
2017-Sep-15 16:30N 64°06' W 051°58'612.3
2017-Sep-15 16:00N 64°10' W 051°47'1 1.8
2017-Sep-15 15:30N 64°11' W 051°45'0 0.1
2017-Sep-15 15:00N 64°11' W 051°46'0 0.1
2017-Sep-15 14:30N 64°11' W 051°46'0 0.1
2017-Sep-15 14:00N 64°11' W 051°46'0 0.1
2017-Sep-15 13:30N 64°11' W 051°46'0 0.1
2017-Sep-15 13:00N 64°11' W 051°46'0 0.1
2017-Sep-15 12:30N 64°11' W 051°46'0 0.0
2017-Sep-15 12:00N 64°11' W 051°46'0 0.0
2017-Sep-15 11:30N 64°11' W 051°46'0 0.0
2017-Sep-15 11:00N 64°11' W 051°46'0 0.0
2017-Sep-15 10:30N 64°11' W 051°46'0 0.0
2017-Sep-15 10:00N 64°11' W 051°46'4 8.8
2017-Sep-15 09:30N 64°08' W 051°53'714.7
2017-Sep-15 09:00N 64°04' W 052°08'713.1
2017-Sep-15 08:30N 64°06' W 052°22'713.1
2017-Sep-15 08:00N 64°12' W 052°27'713.9
2017-Sep-15 07:30N 64°19' W 052°30'713.9
2017-Sep-15 07:00N 64°26' W 052°34'713.9
2017-Sep-15 06:30N 64°33' W 052°37'713.9
2017-Sep-15 06:00N 64°40' W 052°41'713.6
2017-Sep-15 05:30N 64°46' W 052°45'714.0
2017-Sep-15 05:01N 64°53' W 052°48'713.8
2017-Sep-15 04:31N 64°59' W 052°53'612.7
2017-Sep-15 04:00N 65°06' W 052°58'612.6
2017-Sep-15 03:31N 65°11' W 053°03'  
2017-Sep-09 00:20N 66°01' W 053°40'412.0
2017-Sep-09 00:00N 66°03' W 053°47'1312.4
2017-Sep-08 22:58N 66°15' W 054°01'  

Dump ship's entire track history